sensor_id;sensor_type;location;lat;lon;timestamp;temperature;humidity
2851;DHT22;1433;49.976;8.342;2024-01-27T00:01:25;6.10;1.00
2851;DHT22;1433;49.976;8.342;2024-01-27T00:03:51;6.10;1.00
2851;DHT22;1433;49.976;8.342;2024-01-27T00:06:17;6.00;1.00
2851;DHT22;1433;49.976;8.342;2024-01-27T00:08:43;5.90;1.00
2851;DHT22;1433;49.976;8.342;2024-01-27T00:11:11;5.90;1.00
2851;DHT22;1433;49.976;8.342;2024-01-27T00:13:37;6.00;1.00
2851;DHT22;1433;49.976;8.342;2024-01-27T00:16:04;5.90;1.00
2851;DHT22;1433;49.976;8.342;2024-01-27T00:18:30;5.80;1.00
2851;DHT22;1433;49.976;8.342;2024-01-27T00:20:56;5.70;1.00
2851;DHT22;1433;49.976;8.342;2024-01-27T00:23:23;5.60;1.00
2851;DHT22;1433;49.976;8.342;2024-01-27T00:25:49;5.60;1.00
2851;DHT22;1433;49.976;8.342;2024-01-27T00:28:15;5.50;1.00
2851;DHT22;1433;49.976;8.342;2024-01-27T00:30:41;5.40;1.00
2851;DHT22;1433;49.976;8.342;2024-01-27T00:33:07;5.20;1.00
2851;DHT22;1433;49.976;8.342;2024-01-27T00:35:33;5.10;1.00
2851;DHT22;1433;49.976;8.342;2024-01-27T00:37:59;5.00;99.90
2851;DHT22;1433;49.976;8.342;2024-01-27T00:40:26;5.00;99.90
2851;DHT22;1433;49.976;8.342;2024-01-27T00:42:52;5.00;99.90
2851;DHT22;1433;49.976;8.342;2024-01-27T00:45:19;5.00;99.90
2851;DHT22;1433;49.976;8.342;2024-01-27T00:47:45;5.00;99.90
2851;DHT22;1433;49.976;8.342;2024-01-27T00:50:11;5.00;99.90
2851;DHT22;1433;49.976;8.342;2024-01-27T00:52:37;5.00;99.90
2851;DHT22;1433;49.976;8.342;2024-01-27T00:55:04;5.00;99.90
2851;DHT22;1433;49.976;8.342;2024-01-27T00:57:30;5.00;99.90
2851;DHT22;1433;49.976;8.342;2024-01-27T00:59:56;4.90;1.00
2851;DHT22;1433;49.976;8.342;2024-01-27T01:02:22;4.80;1.00
2851;DHT22;1433;49.976;8.342;2024-01-27T01:04:50;4.80;1.00
2851;DHT22;1433;49.976;8.342;2024-01-27T01:07:16;4.80;1.00
2851;DHT22;1433;49.976;8.342;2024-01-27T01:09:42;4.90;1.00
2851;DHT22;1433;49.976;8.342;2024-01-27T01:12:09;4.70;1.00
2851;DHT22;1433;49.976;8.342;2024-01-27T01:14:35;4.60;1.00
2851;DHT22;1433;49.976;8.342;2024-01-27T01:17:01;4.60;1.00
2851;DHT22;1433;49.976;8.342;2024-01-27T01:19:28;4.50;1.00
2851;DHT22;1433;49.976;8.342;2024-01-27T01:21:54;4.50;1.00
2851;DHT22;1433;49.976;8.342;2024-01-27T01:24:20;4.40;52.80
2851;DHT22;1433;49.976;8.342;2024-01-27T01:26:46;4.30;99.90
2851;DHT22;1433;49.976;8.342;2024-01-27T01:29:12;4.20;99.90
2851;DHT22;1433;49.976;8.342;2024-01-27T01:31:41;4.20;1.00
2851;DHT22;1433;49.976;8.342;2024-01-27T01:34:08;4.20;1.00
2851;DHT22;1433;49.976;8.342;2024-01-27T01:36:34;4.10;1.00
2851;DHT22;1433;49.976;8.342;2024-01-27T01:39:00;4.10;47.50
2851;DHT22;1433;49.976;8.342;2024-01-27T01:41:27;4.10;99.90
2851;DHT22;1433;49.976;8.342;2024-01-27T01:43:53;4.10;99.90
2851;DHT22;1433;49.976;8.342;2024-01-27T01:46:22;4.10;1.00
2851;DHT22;1433;49.976;8.342;2024-01-27T01:48:49;4.00;1.00
2851;DHT22;1433;49.976;8.342;2024-01-27T01:51:16;4.00;1.00
2851;DHT22;1433;49.976;8.342;2024-01-27T01:53:45;3.90;99.90
2851;DHT22;1433;49.976;8.342;2024-01-27T01:56:18;3.80;1.00
2851;DHT22;1433;49.976;8.342;2024-01-27T01:58:41;3.80;1.00
2851;DHT22;1433;49.976;8.342;2024-01-27T02:01:09;3.70;99.90
2851;DHT22;1433;49.976;8.342;2024-01-27T02:03:35;3.70;99.90
2851;DHT22;1433;49.976;8.342;2024-01-27T02:06:01;3.70;1.00
2851;DHT22;1433;49.976;8.342;2024-01-27T02:08:27;3.60;1.00
2851;DHT22;1433;49.976;8.342;2024-01-27T02:10:53;3.50;1.00
2851;DHT22;1433;49.976;8.342;2024-01-27T02:13:21;3.50;1.00
2851;DHT22;1433;49.976;8.342;2024-01-27T02:15:49;3.50;1.00
2851;DHT22;1433;49.976;8.342;2024-01-27T02:18:16;3.40;1.00
2851;DHT22;1433;49.976;8.342;2024-01-27T02:20:42;3.40;1.00
2851;DHT22;1433;49.976;8.342;2024-01-27T02:23:08;3.30;99.90
2851;DHT22;1433;49.976;8.342;2024-01-27T02:25:35;3.30;99.90
2851;DHT22;1433;49.976;8.342;2024-01-27T02:28:01;3.30;99.90
2851;DHT22;1433;49.976;8.342;2024-01-27T02:30:31;3.40;99.90
2851;DHT22;1433;49.976;8.342;2024-01-27T02:32:57;3.50;99.90
2851;DHT22;1433;49.976;8.342;2024-01-27T02:35:24;3.50;99.90
2851;DHT22;1433;49.976;8.342;2024-01-27T02:37:50;3.40;99.90
2851;DHT22;1433;49.976;8.342;2024-01-27T02:40:17;3.30;99.90
2851;DHT22;1433;49.976;8.342;2024-01-27T02:42:43;3.30;99.90
2851;DHT22;1433;49.976;8.342;2024-01-27T02:45:10;3.30;99.90
2851;DHT22;1433;49.976;8.342;2024-01-27T02:47:37;3.20;1.00
2851;DHT22;1433;49.976;8.342;2024-01-27T02:50:04;3.20;1.00
2851;DHT22;1433;49.976;8.342;2024-01-27T02:52:32;3.00;1.00
2851;DHT22;1433;49.976;8.342;2024-01-27T02:54:58;2.90;1.00
2851;DHT22;1433;49.976;8.342;2024-01-27T02:57:25;2.80;1.00
2851;DHT22;1433;49.976;8.342;2024-01-27T02:59:51;2.70;1.00
2851;DHT22;1433;49.976;8.342;2024-01-27T03:02:17;2.60;1.00
2851;DHT22;1433;49.976;8.342;2024-01-27T03:04:43;2.50;1.00
2851;DHT22;1433;49.976;8.342;2024-01-27T03:07:09;2.60;81.40
2851;DHT22;1433;49.976;8.342;2024-01-27T03:09:36;2.60;99.90
2851;DHT22;1433;49.976;8.342;2024-01-27T03:12:02;2.60;32.10
2851;DHT22;1433;49.976;8.342;2024-01-27T03:14:29;2.50;20.10
2851;DHT22;1433;49.976;8.342;2024-01-27T03:16:55;2.30;56.20
2851;DHT22;1433;49.976;8.342;2024-01-27T03:19:21;2.10;99.90
2851;DHT22;1433;49.976;8.342;2024-01-27T03:21:48;2.00;99.90
2851;DHT22;1433;49.976;8.342;2024-01-27T03:24:14;2.00;99.90
2851;DHT22;1433;49.976;8.342;2024-01-27T03:26:40;1.90;99.90
2851;DHT22;1433;49.976;8.342;2024-01-27T03:29:06;1.70;99.90
2851;DHT22;1433;49.976;8.342;2024-01-27T03:31:33;1.60;99.90
2851;DHT22;1433;49.976;8.342;2024-01-27T03:34:03;1.60;99.90
2851;DHT22;1433;49.976;8.342;2024-01-27T03:36:29;1.50;99.90
2851;DHT22;1433;49.976;8.342;2024-01-27T03:38:56;1.40;99.90
2851;DHT22;1433;49.976;8.342;2024-01-27T03:41:24;1.30;99.90
2851;DHT22;1433;49.976;8.342;2024-01-27T03:43:50;1.30;99.90
2851;DHT22;1433;49.976;8.342;2024-01-27T03:46:16;1.30;99.90
2851;DHT22;1433;49.976;8.342;2024-01-27T03:48:42;1.20;99.90
2851;DHT22;1433;49.976;8.342;2024-01-27T03:51:09;1.10;99.90
2851;DHT22;1433;49.976;8.342;2024-01-27T03:53:36;1.00;99.90
2851;DHT22;1433;49.976;8.342;2024-01-27T03:56:02;1.00;99.90
2851;DHT22;1433;49.976;8.342;2024-01-27T03:58:30;1.30;99.90
2851;DHT22;1433;49.976;8.342;2024-01-27T04:00:57;1.40;99.90
2851;DHT22;1433;49.976;8.342;2024-01-27T04:03:23;1.30;99.90
2851;DHT22;1433;49.976;8.342;2024-01-27T04:05:50;1.20;99.90
2851;DHT22;1433;49.976;8.342;2024-01-27T04:08:16;1.20;99.90
2851;DHT22;1433;49.976;8.342;2024-01-27T04:10:42;1.30;99.90
2851;DHT22;1433;49.976;8.342;2024-01-27T04:13:08;1.30;99.90
2851;DHT22;1433;49.976;8.342;2024-01-27T04:15:35;1.40;99.90
2851;DHT22;1433;49.976;8.342;2024-01-27T04:18:05;1.50;99.90
2851;DHT22;1433;49.976;8.342;2024-01-27T04:20:33;1.40;99.90
2851;DHT22;1433;49.976;8.342;2024-01-27T04:23:00;1.40;99.90
2851;DHT22;1433;49.976;8.342;2024-01-27T04:25:26;1.60;99.90
2851;DHT22;1433;49.976;8.342;2024-01-27T04:27:52;1.60;99.90
2851;DHT22;1433;49.976;8.342;2024-01-27T04:30:19;1.70;99.90
2851;DHT22;1433;49.976;8.342;2024-01-27T04:32:45;1.70;99.90
2851;DHT22;1433;49.976;8.342;2024-01-27T04:35:12;1.80;99.90
2851;DHT22;1433;49.976;8.342;2024-01-27T04:37:38;1.80;99.90
2851;DHT22;1433;49.976;8.342;2024-01-27T04:40:05;1.80;99.90
2851;DHT22;1433;49.976;8.342;2024-01-27T04:42:34;1.80;99.90
2851;DHT22;1433;49.976;8.342;2024-01-27T04:45:01;1.70;99.90
2851;DHT22;1433;49.976;8.342;2024-01-27T04:47:27;1.80;99.90
2851;DHT22;1433;49.976;8.342;2024-01-27T04:49:53;1.80;99.90
2851;DHT22;1433;49.976;8.342;2024-01-27T04:52:20;1.80;99.90
2851;DHT22;1433;49.976;8.342;2024-01-27T04:54:47;1.90;99.90
2851;DHT22;1433;49.976;8.342;2024-01-27T04:57:13;1.80;99.90
2851;DHT22;1433;49.976;8.342;2024-01-27T04:59:39;1.80;99.90
2851;DHT22;1433;49.976;8.342;2024-01-27T05:02:05;1.80;99.90
2851;DHT22;1433;49.976;8.342;2024-01-27T05:04:31;1.80;99.90
2851;DHT22;1433;49.976;8.342;2024-01-27T05:06:57;1.70;99.90
2851;DHT22;1433;49.976;8.342;2024-01-27T05:09:23;1.60;99.90
2851;DHT22;1433;49.976;8.342;2024-01-27T05:11:50;1.50;99.90
2851;DHT22;1433;49.976;8.342;2024-01-27T05:14:19;1.40;99.90
2851;DHT22;1433;49.976;8.342;2024-01-27T05:16:45;1.30;99.90
2851;DHT22;1433;49.976;8.342;2024-01-27T05:19:11;1.20;99.90
2851;DHT22;1433;49.976;8.342;2024-01-27T05:21:40;1.10;99.90
2851;DHT22;1433;49.976;8.342;2024-01-27T05:24:06;1.00;99.90
2851;DHT22;1433;49.976;8.342;2024-01-27T05:26:32;0.90;99.90
2851;DHT22;1433;49.976;8.342;2024-01-27T05:28:58;0.90;99.90
2851;DHT22;1433;49.976;8.342;2024-01-27T05:31:25;0.90;99.90
2851;DHT22;1433;49.976;8.342;2024-01-27T05:33:52;0.90;99.90
2851;DHT22;1433;49.976;8.342;2024-01-27T05:36:18;1.00;99.90
2851;DHT22;1433;49.976;8.342;2024-01-27T05:38:44;1.10;99.90
2851;DHT22;1433;49.976;8.342;2024-01-27T05:41:10;1.00;99.90
2851;DHT22;1433;49.976;8.342;2024-01-27T05:43:37;0.90;99.90
2851;DHT22;1433;49.976;8.342;2024-01-27T05:46:03;0.90;99.90
2851;DHT22;1433;49.976;8.342;2024-01-27T05:48:29;0.80;99.90
2851;DHT22;1433;49.976;8.342;2024-01-27T05:50:56;0.80;99.90
2851;DHT22;1433;49.976;8.342;2024-01-27T05:53:23;0.80;99.90
2851;DHT22;1433;49.976;8.342;2024-01-27T05:55:49;0.80;99.90
2851;DHT22;1433;49.976;8.342;2024-01-27T05:58:16;0.70;99.90
2851;DHT22;1433;49.976;8.342;2024-01-27T06:00:43;0.60;99.90
2851;DHT22;1433;49.976;8.342;2024-01-27T06:03:10;0.50;99.90
2851;DHT22;1433;49.976;8.342;2024-01-27T06:05:36;0.50;99.90
2851;DHT22;1433;49.976;8.342;2024-01-27T06:08:04;0.50;99.90
2851;DHT22;1433;49.976;8.342;2024-01-27T06:10:31;0.50;99.90
2851;DHT22;1433;49.976;8.342;2024-01-27T06:12:57;0.40;99.90
2851;DHT22;1433;49.976;8.342;2024-01-27T06:15:23;0.30;99.90
2851;DHT22;1433;49.976;8.342;2024-01-27T06:17:50;0.20;99.90
2851;DHT22;1433;49.976;8.342;2024-01-27T06:20:16;0.20;99.90
2851;DHT22;1433;49.976;8.342;2024-01-27T06:22:44;0.10;99.90
2851;DHT22;1433;49.976;8.342;2024-01-27T06:25:10;0.10;99.90
2851;DHT22;1433;49.976;8.342;2024-01-27T06:27:37;0.10;99.90
2851;DHT22;1433;49.976;8.342;2024-01-27T06:30:05;0.10;99.90
2851;DHT22;1433;49.976;8.342;2024-01-27T06:32:31;0.00;99.90
2851;DHT22;1433;49.976;8.342;2024-01-27T06:34:57;0.00;99.90
2851;DHT22;1433;49.976;8.342;2024-01-27T06:37:23;0.00;99.90
2851;DHT22;1433;49.976;8.342;2024-01-27T06:39:50;0.00;99.90
2851;DHT22;1433;49.976;8.342;2024-01-27T06:42:16;-0.10;99.90
2851;DHT22;1433;49.976;8.342;2024-01-27T06:44:42;-0.10;99.90
2851;DHT22;1433;49.976;8.342;2024-01-27T06:47:08;-0.10;99.90
2851;DHT22;1433;49.976;8.342;2024-01-27T06:49:34;-0.10;99.90
2851;DHT22;1433;49.976;8.342;2024-01-27T06:52:00;-0.20;99.90
2851;DHT22;1433;49.976;8.342;2024-01-27T06:54:26;-0.20;99.90
2851;DHT22;1433;49.976;8.342;2024-01-27T06:56:52;-0.30;99.90
2851;DHT22;1433;49.976;8.342;2024-01-27T06:59:19;-0.30;99.90
2851;DHT22;1433;49.976;8.342;2024-01-27T07:01:46;-0.30;99.90
2851;DHT22;1433;49.976;8.342;2024-01-27T07:04:14;-0.30;99.90
2851;DHT22;1433;49.976;8.342;2024-01-27T07:06:41;-0.40;99.90
2851;DHT22;1433;49.976;8.342;2024-01-27T07:09:07;-0.30;99.90
2851;DHT22;1433;49.976;8.342;2024-01-27T07:11:33;-0.30;99.90
2851;DHT22;1433;49.976;8.342;2024-01-27T07:14:00;-0.30;99.90
2851;DHT22;1433;49.976;8.342;2024-01-27T07:16:26;-0.30;99.90
2851;DHT22;1433;49.976;8.342;2024-01-27T07:18:52;-0.40;99.90
2851;DHT22;1433;49.976;8.342;2024-01-27T07:21:18;-0.30;99.90
2851;DHT22;1433;49.976;8.342;2024-01-27T07:23:44;-0.40;99.90
2851;DHT22;1433;49.976;8.342;2024-01-27T07:26:11;-0.30;99.90
2851;DHT22;1433;49.976;8.342;2024-01-27T07:28:37;-0.30;99.90
2851;DHT22;1433;49.976;8.342;2024-01-27T07:31:06;-0.30;99.90
2851;DHT22;1433;49.976;8.342;2024-01-27T07:33:33;-0.20;99.90
2851;DHT22;1433;49.976;8.342;2024-01-27T07:35:59;-0.20;99.90
2851;DHT22;1433;49.976;8.342;2024-01-27T07:38:25;-0.20;99.90
2851;DHT22;1433;49.976;8.342;2024-01-27T07:40:51;-0.20;99.90
2851;DHT22;1433;49.976;8.342;2024-01-27T07:43:17;-0.10;99.90
2851;DHT22;1433;49.976;8.342;2024-01-27T07:45:44;-0.10;99.90
2851;DHT22;1433;49.976;8.342;2024-01-27T07:48:10;-0.10;99.90
2851;DHT22;1433;49.976;8.342;2024-01-27T07:50:36;-0.10;99.90
2851;DHT22;1433;49.976;8.342;2024-01-27T07:53:02;0.00;99.90
2851;DHT22;1433;49.976;8.342;2024-01-27T07:55:29;0.00;99.90
2851;DHT22;1433;49.976;8.342;2024-01-27T07:57:55;0.10;99.90
2851;DHT22;1433;49.976;8.342;2024-01-27T08:00:21;0.20;99.90
2851;DHT22;1433;49.976;8.342;2024-01-27T08:02:48;0.20;99.90
2851;DHT22;1433;49.976;8.342;2024-01-27T08:05:14;0.30;99.90
2851;DHT22;1433;49.976;8.342;2024-01-27T08:07:40;0.30;99.90
2851;DHT22;1433;49.976;8.342;2024-01-27T08:10:07;0.30;99.90
2851;DHT22;1433;49.976;8.342;2024-01-27T08:12:35;0.40;99.90
2851;DHT22;1433;49.976;8.342;2024-01-27T08:15:04;0.50;99.90
2851;DHT22;1433;49.976;8.342;2024-01-27T08:17:30;0.60;99.90
2851;DHT22;1433;49.976;8.342;2024-01-27T08:19:56;0.60;99.90
2851;DHT22;1433;49.976;8.342;2024-01-27T08:22:22;0.70;99.90
2851;DHT22;1433;49.976;8.342;2024-01-27T08:24:48;0.70;99.90
2851;DHT22;1433;49.976;8.342;2024-01-27T08:27:14;0.80;99.90
2851;DHT22;1433;49.976;8.342;2024-01-27T08:29:41;0.80;99.90
2851;DHT22;1433;49.976;8.342;2024-01-27T08:32:07;0.90;99.90
2851;DHT22;1433;49.976;8.342;2024-01-27T08:34:33;0.90;99.90
2851;DHT22;1433;49.976;8.342;2024-01-27T08:37:01;1.00;99.90
2851;DHT22;1433;49.976;8.342;2024-01-27T08:39:28;1.10;99.90
2851;DHT22;1433;49.976;8.342;2024-01-27T08:41:54;1.10;99.90
2851;DHT22;1433;49.976;8.342;2024-01-27T08:44:20;1.20;99.90
2851;DHT22;1433;49.976;8.342;2024-01-27T08:46:46;1.20;99.90
2851;DHT22;1433;49.976;8.342;2024-01-27T08:49:12;1.30;99.90
